Time;durP1;ratioP1;P1;durP2;ratioP2;P2;SDS_P1;SDS_P2;PMS_P1;PMS_P2;Temp;Humidity;BMP_temperature;BMP_pressure;BME280_temperature;BME280_humidity;BME280_pressure;Samples;Min_cycle;Max_cycle;Signal;HPM_P1;HPM_P2
2022/02/05 00:05:47;;;;;;;6.42;4.05;;;20.30;89.00;;;;;;1975593;71;21064;-83
2022/02/05 00:08:16;;;;;;;9.03;5.00;;;20.30;89.00;;;;;;1959373;72;21556;-83
2022/02/05 00:11:03;;;;;;;8.50;4.58;;;20.30;88.80;;;;;;1961062;72;21131;-82
2022/02/05 00:40:58;;;;;;;5.28;3.37;;;20.50;87.40;;;;;;1978565;71;21101;-82
2022/02/05 00:43:30;;;;;;;15.85;4.95;;;20.60;87.20;;;;;;1977312;71;21098;-82
2022/02/05 00:45:58;;;;;;;7.95;4.25;;;20.60;87.10;;;;;;1959961;71;21080;-83
2022/02/05 00:48:29;;;;;;;9.93;3.98;;;20.60;87.00;;;;;;1970700;72;21673;-82
2022/02/05 00:51:11;;;;;;;8.15;5.03;;;20.60;87.00;;;;;;1980171;72;21153;-84
2022/02/05 00:53:35;;;;;;;9.73;5.10;;;20.70;86.90;;;;;;1944202;73;21190;-83
2022/02/05 00:58:40;;;;;;;10.95;4.55;;;20.80;87.60;;;;;;1921913;74;21143;-84
2022/02/05 01:01:12;;;;;;;9.10;4.83;;;20.80;86.00;;;;;;1906723;75;21044;-82
2022/02/05 01:03:43;;;;;;;9.93;4.50;;;20.90;86.00;;;;;;1931495;74;21123;-83
2022/02/05 01:06:13;;;;;;;7.97;3.50;;;20.90;86.00;;;;;;1912303;72;21079;-83
2022/02/05 01:08:45;;;;;;;7.62;3.85;;;20.90;85.40;;;;;;1917197;72;21221;-84
2022/02/05 01:11:15;;;;;;;7.30;4.17;;;20.90;85.30;;;;;;1918115;72;21086;-82
2022/02/05 01:13:46;;;;;;;8.10;3.90;;;21.00;84.50;;;;;;1960348;72;21098;-82
2022/02/05 01:18:49;;;;;;;6.62;4.03;;;21.00;84.50;;;;;;1973758;72;21123;-83
2022/02/05 01:23:58;;;;;;;4.50;3.27;;;21.00;83.70;;;;;;1925543;74;21641;-82
2022/02/05 01:26:37;;;;;;;8.20;3.72;;;21.00;83.90;;;;;;1881136;74;21585;-81
2022/02/05 01:29:02;;;;;;;7.25;4.03;;;21.00;83.80;;;;;;1898552;75;21150;-81
2022/02/05 01:31:36;;;;;;;10.00;3.67;;;21.00;83.80;;;;;;1895476;74;22191;-82
2022/02/05 01:49:58;;;;;;;6.33;4.00;;;21.30;83.30;;;;;;1897098;74;21089;-87
2022/02/05 01:57:18;;;;;;;5.62;3.42;;;21.40;82.20;;;;;;1897755;75;21217;-86
2022/02/05 02:04:55;;;;;;;6.00;3.80;;;21.50;82.10;;;;;;1988238;71;21166;-86
2022/02/05 02:09:31;;;;;;;5.37;3.33;;;21.50;82.10;;;;;;1957212;71;21103;-85
2022/02/05 02:12:37;;;;;;;5.22;3.50;;;21.50;81.80;;;;;;1997432;71;21064;-72
2022/02/05 02:15:04;;;;;;;5.22;3.47;;;21.50;82.50;;;;;;2003068;71;21107;-72
2022/02/05 02:22:52;;;;;;;5.33;3.12;;;21.60;81.20;;;;;;1975113;71;21649;-72
2022/02/05 02:30:19;;;;;;;7.87;3.80;;;21.70;81.30;;;;;;1982120;72;21131;-71
2022/02/05 02:32:49;;;;;;;6.47;4.50;;;21.70;80.70;;;;;;1984519;71;21975;-70
2022/02/05 02:35:22;;;;;;;12.47;11.18;;;21.80;81.30;;;;;;1960657;71;21638;-70
2022/02/05 02:38:01;;;;;;;5.87;3.80;;;21.80;81.30;;;;;;2008536;70;21064;-71
2022/02/05 02:42:58;;;;;;;7.22;3.90;;;21.90;80.50;;;;;;1998136;70;21510;-71
2022/02/05 02:45:24;;;;;;;5.47;3.83;;;21.90;80.40;;;;;;1998953;71;21123;-71
2022/02/05 02:47:54;;;;;;;6.05;3.58;;;22.00;80.50;;;;;;2005837;71;21045;-72
2022/02/05 02:58:06;;;;;;;7.05;4.22;;;21.90;81.20;;;;;;2008485;71;21606;-72
2022/02/05 03:00:34;;;;;;;6.95;4.10;;;21.90;82.10;;;;;;2010276;71;21128;-72
2022/02/05 03:03:05;;;;;;;8.68;4.35;;;22.00;80.90;;;;;;1999441;71;21125;-72
2022/02/05 03:05:36;;;;;;;6.70;3.75;;;22.20;80.40;;;;;;2007844;71;21145;-72
2022/02/05 03:08:08;;;;;;;9.48;4.42;;;22.20;80.10;;;;;;1996858;70;21173;-70
2022/02/05 03:10:39;;;;;;;8.25;4.25;;;22.30;79.70;;;;;;1985858;71;21057;-70
2022/02/05 03:13:10;;;;;;;5.78;3.95;;;22.30;79.80;;;;;;1977028;70;21029;-70
2022/02/05 03:15:42;;;;;;;6.50;3.92;;;22.30;80.00;;;;;;1995560;70;21093;-70
2022/02/05 03:18:27;;;;;;;9.53;4.80;;;22.40;80.00;;;;;;2003470;71;21572;-70
2022/02/05 03:20:45;;;;;;;6.33;4.35;;;22.50;79.10;;;;;;2003631;70;21521;-70
2022/02/05 03:23:15;;;;;;;6.92;4.05;;;22.50;79.20;;;;;;2003252;71;21489;-69
2022/02/05 03:25:46;;;;;;;6.08;4.45;;;22.60;78.90;;;;;;1990621;71;21045;-70
2022/02/05 03:28:17;;;;;;;8.73;4.60;;;22.60;78.80;;;;;;1986706;70;21124;-70
2022/02/05 03:30:48;;;;;;;9.33;4.05;;;22.60;78.90;;;;;;1962884;72;21125;-70
2022/02/05 03:33:19;;;;;;;6.47;4.20;;;22.70;78.60;;;;;;1976827;70;21108;-70
2022/02/05 03:35:50;;;;;;;5.10;3.75;;;22.70;78.80;;;;;;1987845;71;21576;-70
2022/02/05 03:38:21;;;;;;;6.03;4.35;;;22.80;78.50;;;;;;1982849;71;21131;-69
2022/02/05 03:40:52;;;;;;;8.75;4.62;;;22.90;78.40;;;;;;2005578;71;21050;-69
2022/02/05 03:43:23;;;;;;;6.45;4.12;;;23.00;77.40;;;;;;2002072;70;21137;-69
2022/02/05 03:45:54;;;;;;;10.43;4.40;;;23.10;77.20;;;;;;1984923;70;21096;-69
2022/02/05 03:48:25;;;;;;;6.80;4.20;;;23.20;76.70;;;;;;1994484;70;21132;-70
2022/02/05 03:50:55;;;;;;;9.65;4.65;;;23.30;76.60;;;;;;1978640;72;21131;-70
2022/02/05 03:53:26;;;;;;;14.53;5.00;;;23.30;76.60;;;;;;2004790;70;21587;-69
2022/02/05 03:55:57;;;;;;;7.47;4.37;;;23.40;76.20;;;;;;2002893;71;22196;-70
2022/02/05 03:58:28;;;;;;;11.43;4.05;;;23.40;77.80;;;;;;2002505;71;21119;-69
2022/02/05 04:01:00;;;;;;;5.22;3.80;;;23.40;75.80;;;;;;2002586;71;21108;-69
2022/02/05 04:03:30;;;;;;;6.05;3.98;;;23.50;75.80;;;;;;2009095;71;21072;-69
2022/02/05 04:06:01;;;;;;;6.67;4.00;;;23.60;75.30;;;;;;1980250;70;22128;-70
2022/02/05 04:08:32;;;;;;;7.90;3.47;;;23.70;75.40;;;;;;1995476;70;21132;-70
2022/02/05 04:11:13;;;;;;;6.00;3.80;;;23.80;74.10;;;;;;1996656;71;21052;-70
2022/02/05 04:18:38;;;;;;;8.10;3.80;;;24.00;74.00;;;;;;1987065;70;21085;-71
2022/02/05 04:21:09;;;;;;;5.40;3.92;;;24.10;73.20;;;;;;1984747;70;21472;-71
2022/02/05 04:23:41;;;;;;;7.83;3.72;;;24.30;72.90;;;;;;1989692;70;21583;-70
2022/02/05 04:26:11;;;;;;;11.83;7.10;;;24.40;72.40;;;;;;1938888;72;21100;-70
2022/02/05 04:28:42;;;;;;;11.30;8.08;;;24.50;72.40;;;;;;1947356;73;21070;-70
2022/02/05 04:31:13;;;;;;;5.83;4.30;;;24.60;72.30;;;;;;1983966;72;21115;-70
2022/02/05 04:33:44;;;;;;;10.18;5.35;;;24.70;71.70;;;;;;2010476;71;21551;-70
2022/02/05 04:36:17;;;;;;;8.20;4.40;;;24.80;71.60;;;;;;2004881;70;21165;-70
2022/02/05 04:38:49;;;;;;;6.37;4.15;;;24.90;71.00;;;;;;1990093;71;21576;-71
2022/02/05 04:41:36;;;;;;;7.42;3.75;;;25.00;71.00;;;;;;2006978;71;21585;-70
2022/02/05 04:44:04;;;;;;;5.62;3.52;;;25.10;70.00;;;;;;1953863;71;21677;-70
2022/02/05 04:49:23;;;;;;;10.82;3.22;;;25.30;71.60;;;;;;1961397;71;21056;-71
2022/02/05 05:04:57;;;;;;;8.33;3.42;;;25.60;67.10;;;;;;1981236;72;21100;-71
2022/02/05 05:21:49;;;;;;;6.55;4.20;;;25.30;69.30;;;;;;1994581;71;21117;-70
2022/02/05 05:24:20;;;;;;;7.08;3.80;;;25.30;69.20;;;;;;1978789;72;21171;-70
2022/02/05 05:26:52;;;;;;;6.22;4.17;;;25.30;69.10;;;;;;1979354;71;21115;-70
2022/02/05 05:29:24;;;;;;;8.50;4.28;;;25.30;68.50;;;;;;1909724;75;21143;-70
2022/02/05 05:31:55;;;;;;;7.45;3.65;;;25.30;69.60;;;;;;1947601;73;21592;-70
2022/02/05 05:34:26;;;;;;;5.75;3.98;;;25.30;68.50;;;;;;1948263;73;21116;-70
2022/02/05 05:36:57;;;;;;;6.25;3.92;;;25.40;70.00;;;;;;1969674;71;21024;-71
2022/02/05 05:39:32;;;;;;;5.47;3.72;;;25.40;69.10;;;;;;1980796;72;21135;-71
2022/02/05 05:42:07;;;;;;;7.08;3.77;;;25.40;68.70;;;;;;1975130;72;21134;-70
2022/02/05 05:50:47;;;;;;;6.78;4.37;;;25.40;69.20;;;;;;1972653;72;21112;-71
2022/02/05 05:52:11;;;;;;;8.20;4.75;;;25.30;70.00;;;;;;1978050;72;21132;-71
2022/02/05 05:54:46;;;;;;;10.72;4.60;;;25.30;69.10;;;;;;1971348;72;21423;-69
2022/02/05 05:57:18;;;;;;;6.92;4.60;;;25.40;68.90;;;;;;1952380;72;21441;-70
2022/02/05 05:59:49;;;;;;;7.70;4.45;;;25.40;68.70;;;;;;1976136;72;21100;-71
2022/02/05 06:02:20;;;;;;;7.58;4.45;;;25.40;68.50;;;;;;1972340;72;21178;-70
2022/02/05 06:04:54;;;;;;;6.95;4.58;;;25.40;68.60;;;;;;1977155;72;21158;-70
2022/02/05 06:07:25;;;;;;;7.70;4.55;;;25.50;69.30;;;;;;1977922;72;21163;-70
2022/02/05 06:09:57;;;;;;;8.03;3.95;;;25.50;68.60;;;;;;1969075;72;21060;-70
2022/02/05 06:12:27;;;;;;;8.60;4.62;;;25.60;69.80;;;;;;1978088;72;21100;-70
2022/02/05 06:15:02;;;;;;;6.97;4.83;;;25.60;68.20;;;;;;1981429;72;21108;-70
2022/02/05 06:17:32;;;;;;;6.20;3.72;;;25.60;68.10;;;;;;1971908;72;21430;-70
2022/02/05 06:20:04;;;;;;;10.53;4.85;;;25.60;67.90;;;;;;1964890;73;21119;-70
2022/02/05 06:22:36;;;;;;;5.78;3.62;;;25.60;68.00;;;;;;1971449;73;21588;-70
2022/02/05 06:25:08;;;;;;;10.00;4.45;;;25.70;67.30;;;;;;1971431;72;21552;-71
2022/02/05 06:27:40;;;;;;;7.75;4.08;;;25.90;67.20;;;;;;1971373;73;21152;-71
2022/02/05 06:30:12;;;;;;;6.72;3.77;;;25.90;67.30;;;;;;1970213;72;21205;-71
2022/02/05 06:32:43;;;;;;;6.65;4.20;;;26.00;66.70;;;;;;1968471;72;21139;-70
2022/02/05 06:35:13;;;;;;;7.10;4.03;;;26.10;67.30;;;;;;1978583;72;21166;-70
2022/02/05 06:37:44;;;;;;;6.42;4.08;;;26.10;66.00;;;;;;1947838;73;21077;-70
2022/02/05 06:40:15;;;;;;;9.20;4.12;;;26.20;65.70;;;;;;1947814;73;21105;-71
2022/02/05 06:42:47;;;;;;;5.53;3.60;;;26.10;66.40;;;;;;1947709;73;21161;-70
2022/02/05 06:45:37;;;;;;;5.12;3.45;;;26.10;66.20;;;;;;1947684;73;21156;-70
2022/02/05 06:48:10;;;;;;;4.95;3.22;;;26.10;66.20;;;;;;1883743;76;21133;-70
2022/02/05 06:50:41;;;;;;;6.03;3.30;;;26.00;66.70;;;;;;1879352;76;21140;-71
2022/02/05 06:53:11;;;;;;;4.95;3.70;;;25.90;66.90;;;;;;1847761;77;21197;-70
2022/02/05 06:55:43;;;;;;;8.58;3.67;;;25.90;67.00;;;;;;1847727;77;21591;-70
2022/02/05 06:58:14;;;;;;;9.25;4.00;;;25.90;66.50;;;;;;1860386;76;21622;-71
2022/02/05 07:00:45;;;;;;;7.53;4.30;;;26.00;65.90;;;;;;1860783;76;21128;-71
2022/02/05 07:03:20;;;;;;;7.35;3.77;;;26.00;66.20;;;;;;1859555;76;21149;-70
2022/02/05 07:05:50;;;;;;;5.25;4.15;;;26.00;66.60;;;;;;1809708;79;21166;-70
2022/02/05 07:08:21;;;;;;;6.83;3.92;;;26.00;66.70;;;;;;1811521;77;21591;-71
2022/02/05 07:10:52;;;;;;;6.42;4.40;;;25.90;66.90;;;;;;1874457;76;21237;-70
2022/02/05 07:13:23;;;;;;;5.42;3.67;;;25.90;66.20;;;;;;1882591;76;21138;-70
2022/02/05 07:16:02;;;;;;;9.78;4.20;;;25.90;66.50;;;;;;1866908;76;21143;-71
2022/02/05 07:18:42;;;;;;;7.05;4.00;;;25.90;66.20;;;;;;1863320;76;21671;-71
2022/02/05 07:21:11;;;;;;;7.33;3.90;;;26.00;66.50;;;;;;1883189;75;21599;-71
2022/02/05 07:31:10;;;;;;;6.92;4.08;;;26.40;65.90;;;;;;1855965;75;21155;-70
2022/02/05 07:33:41;;;;;;;7.97;5.47;;;26.40;66.20;;;;;;1881222;75;21110;-71
2022/02/05 07:36:13;;;;;;;8.28;4.90;;;26.40;66.60;;;;;;1881834;75;21705;-71
2022/02/05 07:38:45;;;;;;;8.30;4.75;;;26.40;65.50;;;;;;1882510;76;21174;-71
2022/02/05 07:41:15;;;;;;;7.72;4.47;;;26.40;65.30;;;;;;1853144;76;21153;-70
2022/02/05 07:43:46;;;;;;;6.00;4.00;;;26.40;65.80;;;;;;1882596;76;21139;-71
2022/02/05 07:46:17;;;;;;;10.78;4.30;;;26.40;65.20;;;;;;1883235;76;21135;-71
2022/02/05 07:48:48;;;;;;;5.60;3.77;;;26.40;65.80;;;;;;1869267;76;21131;-70
2022/02/05 07:51:18;;;;;;;9.68;4.22;;;26.50;65.20;;;;;;1876471;76;21627;-70
2022/02/05 07:53:49;;;;;;;9.25;4.10;;;26.50;67.50;;;;;;1854161;75;21177;-71
2022/02/05 07:56:20;;;;;;;7.53;5.80;;;26.60;65.70;;;;;;1882965;74;21142;-70
2022/02/05 07:58:51;;;;;;;5.15;3.90;;;26.60;65.30;;;;;;1872419;75;21692;-70
2022/02/05 08:01:22;;;;;;;7.42;4.00;;;26.60;65.00;;;;;;1819560;77;21163;-71
2022/02/05 08:03:53;;;;;;;10.93;4.62;;;26.60;64.60;;;;;;1862090;75;21084;-70
2022/02/05 08:06:23;;;;;;;6.72;3.65;;;26.60;65.50;;;;;;1883235;75;21193;-70
2022/02/05 08:08:59;;;;;;;6.97;3.83;;;26.60;65.10;;;;;;1866857;75;21209;-70
2022/02/05 08:11:37;;;;;;;8.28;4.15;;;26.50;63.90;;;;;;1892055;74;21547;-70
2022/02/05 08:13:58;;;;;;;6.40;4.10;;;26.50;65.10;;;;;;1882369;75;21088;-70
2022/02/05 08:16:45;;;;;;;7.17;4.05;;;26.40;65.10;;;;;;1891474;74;21147;-70
2022/02/05 08:19:01;;;;;;;9.00;4.42;;;26.40;65.40;;;;;;1887495;75;21796;-70
2022/02/05 08:21:32;;;;;;;9.85;4.60;;;26.40;65.50;;;;;;1912398;74;21099;-70
2022/02/05 08:24:03;;;;;;;6.30;4.20;;;26.30;65.30;;;;;;1897223;74;21719;-70
2022/02/05 08:26:35;;;;;;;9.18;5.45;;;26.30;65.50;;;;;;1906326;75;21068;-71
2022/02/05 08:29:08;;;;;;;13.95;6.17;;;26.40;65.50;;;;;;1897631;75;21602;-72
2022/02/05 08:31:39;;;;;;;11.50;6.20;;;26.30;65.80;;;;;;1880254;75;21131;-70
2022/02/05 08:34:10;;;;;;;7.55;5.05;;;26.30;66.90;;;;;;1883864;75;21057;-71
2022/02/05 08:36:42;;;;;;;7.87;5.05;;;26.30;65.90;;;;;;1899855;75;21181;-70
2022/02/05 08:39:14;;;;;;;17.57;5.80;;;26.30;66.00;;;;;;1885777;75;21055;-70
2022/02/05 08:41:45;;;;;;;10.30;5.08;;;26.20;66.00;;;;;;1906148;75;21232;-69
2022/02/05 08:44:16;;;;;;;10.85;5.70;;;26.20;66.20;;;;;;1897985;75;21656;-70
2022/02/05 08:46:47;;;;;;;11.55;7.25;;;26.20;66.10;;;;;;1899776;75;21130;-70
2022/02/05 08:49:18;;;;;;;9.63;4.25;;;26.20;66.30;;;;;;1897315;74;21118;-70
2022/02/05 08:51:49;;;;;;;8.93;4.60;;;26.20;66.20;;;;;;1908064;74;21257;-70
2022/02/05 08:54:20;;;;;;;13.03;6.05;;;26.20;66.50;;;;;;1876992;75;21486;-70
2022/02/05 08:56:52;;;;;;;8.00;4.70;;;26.20;66.00;;;;;;1889408;74;21155;-70
2022/02/05 08:59:25;;;;;;;7.10;4.08;;;26.20;66.00;;;;;;1881874;74;21116;-70
2022/02/05 09:02:11;;;;;;;7.90;4.12;;;26.20;65.90;;;;;;1901377;74;21595;-70
2022/02/05 09:04:44;;;;;;;7.35;4.00;;;26.20;66.10;;;;;;1887692;74;21146;-70
2022/02/05 09:07:00;;;;;;;7.00;4.50;;;26.20;65.90;;;;;;1901384;74;21108;-69
2022/02/05 09:09:52;;;;;;;8.70;4.33;;;26.20;66.30;;;;;;1865630;74;21090;-69
2022/02/05 09:12:33;;;;;;;9.18;5.00;;;26.20;66.00;;;;;;1886390;74;21597;-69
2022/02/05 09:14:40;;;;;;;12.68;5.80;;;26.20;66.20;;;;;;1913549;74;21649;-70
2022/02/05 09:17:08;;;;;;;12.03;4.92;;;26.20;66.40;;;;;;1909401;74;21082;-69
2022/02/05 09:19:40;;;;;;;8.75;4.80;;;26.30;66.70;;;;;;1897798;74;21155;-69
2022/02/05 09:22:11;;;;;;;8.68;4.62;;;26.20;66.10;;;;;;1885448;74;21101;-69
2022/02/05 09:24:42;;;;;;;10.65;4.30;;;26.20;66.30;;;;;;1921156;74;21586;-69
2022/02/05 09:27:14;;;;;;;7.55;3.90;;;26.20;65.80;;;;;;1921742;74;21563;-70
2022/02/05 09:30:03;;;;;;;6.78;4.28;;;26.10;66.20;;;;;;1886853;74;21225;-69
2022/02/05 09:32:18;;;;;;;5.78;3.83;;;26.10;66.30;;;;;;1913848;74;21151;-69
2022/02/05 09:34:48;;;;;;;12.60;6.47;;;26.10;66.20;;;;;;1904221;74;21133;-69
2022/02/05 09:37:19;;;;;;;8.80;5.40;;;26.10;66.90;;;;;;1914311;74;21146;-70
2022/02/05 09:39:51;;;;;;;10.25;5.12;;;26.00;66.70;;;;;;1902676;74;21183;-70
2022/02/05 09:42:21;;;;;;;9.75;4.97;;;26.10;66.60;;;;;;1845213;76;21093;-70
2022/02/05 09:44:52;;;;;;;8.28;4.30;;;26.10;66.40;;;;;;1879878;76;21120;-70
2022/02/05 09:47:24;;;;;;;7.67;4.50;;;26.20;66.70;;;;;;1879134;76;21240;-70
2022/02/05 09:49:54;;;;;;;6.55;4.30;;;26.20;66.60;;;;;;1883182;75;21085;-70
2022/02/05 09:52:26;;;;;;;8.15;5.47;;;26.10;66.00;;;;;;1920961;74;21154;-70
2022/02/05 09:54:57;;;;;;;8.50;5.25;;;26.10;66.20;;;;;;1910799;74;21181;-71
2022/02/05 09:57:28;;;;;;;11.68;4.95;;;26.10;66.70;;;;;;1878348;74;21127;-70
2022/02/05 10:00:01;;;;;;;12.65;5.53;;;26.10;66.80;;;;;;1891486;74;21236;-70
2022/02/05 10:02:36;;;;;;;10.53;5.35;;;26.00;67.20;;;;;;1888415;74;21240;-70
2022/02/05 10:05:10;;;;;;;8.13;4.95;;;26.00;67.10;;;;;;1880147;74;21182;-71
2022/02/05 10:07:44;;;;;;;8.65;5.92;;;26.00;67.20;;;;;;1882477;74;21185;-70
2022/02/05 10:10:15;;;;;;;10.10;5.90;;;25.90;67.10;;;;;;1890652;74;21748;-70
2022/02/05 10:12:46;;;;;;;8.90;5.83;;;25.90;67.00;;;;;;1884941;76;21172;-69
2022/02/05 10:15:18;;;;;;;11.35;6.80;;;25.90;67.20;;;;;;1890069;74;21170;-69
2022/02/05 10:17:53;;;;;;;10.68;6.30;;;25.90;67.40;;;;;;1893807;74;21115;-70
2022/02/05 10:20:22;;;;;;;12.40;6.58;;;25.90;67.60;;;;;;1888784;74;21069;-70
2022/02/05 10:22:53;;;;;;;9.85;6.10;;;25.80;67.90;;;;;;1899015;74;21151;-69
2022/02/05 10:25:27;;;;;;;10.45;6.62;;;25.80;67.80;;;;;;1885682;74;21571;-69
2022/02/05 10:27:58;;;;;;;12.33;7.10;;;25.80;67.80;;;;;;1892461;74;21096;-69
2022/02/05 10:30:30;;;;;;;12.30;6.83;;;25.80;68.10;;;;;;1882132;75;21139;-69
2022/02/05 10:33:07;;;;;;;15.55;7.85;;;25.70;68.20;;;;;;1898388;74;21711;-70
2022/02/05 10:35:42;;;;;;;12.35;6.70;;;25.70;68.30;;;;;;1886705;74;21123;-69
2022/02/05 10:40:47;;;;;;;12.53;5.62;;;25.70;68.20;;;;;;1885572;74;21088;-69
2022/02/05 10:43:18;;;;;;;9.80;6.97;;;25.70;68.20;;;;;;1881956;76;21613;-69
2022/02/05 10:45:51;;;;;;;11.65;6.17;;;25.70;68.40;;;;;;1881841;76;21076;-70
2022/02/05 10:48:25;;;;;;;12.20;6.30;;;25.60;68.60;;;;;;1875820;76;21712;-69
2022/02/05 10:51:00;;;;;;;9.80;6.30;;;25.60;68.50;;;;;;1880026;74;21710;-69
2022/02/05 10:53:38;;;;;;;11.28;5.62;;;25.60;68.60;;;;;;1880178;76;21627;-70
2022/02/05 11:06:17;;;;;;;10.40;6.75;;;25.50;69.10;;;;;;1889951;74;21636;-70
2022/02/05 11:08:48;;;;;;;10.95;6.67;;;25.50;69.10;;;;;;1876915;76;21232;-69
2022/02/05 11:18:59;;;;;;;12.45;7.30;;;25.30;69.30;;;;;;1877563;76;21485;-70
2022/02/05 11:21:32;;;;;;;16.87;7.75;;;25.40;69.40;;;;;;1875674;75;21240;-69
2022/02/05 11:24:06;;;;;;;11.53;7.40;;;25.30;69.50;;;;;;1880612;74;21610;-69
2022/02/05 11:26:37;;;;;;;15.93;8.48;;;25.30;69.70;;;;;;1873157;75;21094;-70
2022/02/05 11:29:08;;;;;;;18.37;8.78;;;25.30;69.90;;;;;;1872809;75;21148;-69
2022/02/05 11:31:41;;;;;;;16.82;10.25;;;25.20;70.10;;;;;;1889321;75;21248;-69
2022/02/05 11:34:14;;;;;;;15.83;8.70;;;25.20;70.20;;;;;;1876328;75;21111;-69
2022/02/05 11:36:48;;;;;;;18.12;8.78;;;25.20;70.50;;;;;;1879350;75;21117;-70
2022/02/05 11:39:19;;;;;;;18.65;9.20;;;25.20;70.90;;;;;;1876307;76;21205;-69
2022/02/05 11:41:51;;;;;;;15.78;8.55;;;25.10;70.80;;;;;;1888902;74;21131;-69
2022/02/05 11:44:25;;;;;;;16.02;9.30;;;25.10;71.00;;;;;;1901974;75;21476;-70
2022/02/05 11:46:59;;;;;;;18.57;9.43;;;25.10;71.30;;;;;;1905781;74;21182;-69
2022/02/05 11:49:32;;;;;;;11.78;8.33;;;25.00;70.90;;;;;;1880409;76;21180;-69
2022/02/05 11:52:02;;;;;;;13.55;8.85;;;25.00;70.70;;;;;;1877779;75;21117;-70
2022/02/05 11:54:36;;;;;;;14.28;9.15;;;25.00;70.70;;;;;;1882728;74;21166;-70
2022/02/05 11:57:10;;;;;;;12.65;8.75;;;24.90;70.70;;;;;;1876092;75;21088;-70
2022/02/05 11:59:41;;;;;;;15.80;8.65;;;25.00;70.90;;;;;;1890095;74;21205;-70
2022/02/05 12:02:15;;;;;;;16.97;9.23;;;24.90;70.70;;;;;;1871344;75;21681;-70
2022/02/05 12:04:45;;;;;;;19.20;8.88;;;24.90;70.60;;;;;;1867986;76;21552;-69
2022/02/05 12:07:18;;;;;;;14.95;8.10;;;24.80;70.60;;;;;;1913254;75;21049;-70
2022/02/05 12:09:50;;;;;;;14.65;8.70;;;24.80;70.40;;;;;;1917349;74;21182;-70
2022/02/05 12:12:34;;;;;;;15.32;8.55;;;24.80;70.50;;;;;;1917462;75;21068;-69
2022/02/05 12:14:58;;;;;;;24.32;10.45;;;24.80;70.40;;;;;;1892125;74;21225;-70
2022/02/05 12:17:39;;;;;;;20.10;10.08;;;24.80;70.40;;;;;;1879089;76;21174;-70
2022/02/05 12:20:06;;;;;;;15.85;9.35;;;24.70;70.40;;;;;;1899157;75;21516;-70
2022/02/05 12:22:37;;;;;;;18.95;9.68;;;24.70;70.50;;;;;;1904272;75;21674;-70
2022/02/05 12:25:17;;;;;;;17.92;10.20;;;24.70;70.50;;;;;;1884768;74;21245;-85
2022/02/05 12:27:40;;;;;;;21.90;11.00;;;24.70;71.00;;;;;;1886272;74;21103;-85
2022/02/05 12:30:14;;;;;;;19.80;9.45;;;24.70;70.50;;;;;;1884260;75;21131;-87
2022/02/05 12:32:45;;;;;;;19.52;10.18;;;24.70;70.20;;;;;;1882716;74;21083;-86
2022/02/05 12:35:16;;;;;;;16.42;10.28;;;24.70;70.20;;;;;;1902328;75;21048;-87
2022/02/05 12:37:47;;;;;;;17.02;10.30;;;24.70;70.30;;;;;;1874686;75;21174;-87
2022/02/05 12:40:18;;;;;;;17.82;10.25;;;24.70;70.50;;;;;;1885205;74;21168;-87
2022/02/05 12:42:51;;;;;;;17.48;10.40;;;24.60;70.50;;;;;;1882746;75;21134;-87
2022/02/05 12:45:31;;;;;;;22.50;12.03;;;24.60;70.50;;;;;;1882133;75;21608;-86
2022/02/05 12:48:04;;;;;;;25.32;14.38;;;24.60;70.70;;;;;;1884608;75;21139;-85
2022/02/05 12:50:30;;;;;;;30.50;16.57;;;24.60;70.90;;;;;;1891379;74;21473;-86
2022/02/05 12:53:01;;;;;;;27.32;14.53;;;24.60;70.80;;;;;;1881013;75;21131;-86
2022/02/05 12:55:35;;;;;;;23.65;14.65;;;24.50;71.00;;;;;;1903459;74;21135;-86
2022/02/05 12:58:04;;;;;;;25.17;14.90;;;24.50;71.20;;;;;;1902410;75;21130;-87
2022/02/05 13:00:35;;;;;;;32.05;16.62;;;24.50;71.40;;;;;;1889974;75;21116;-86
2022/02/05 13:03:12;;;;;;;25.68;14.80;;;24.50;71.40;;;;;;1895983;75;21190;-85
2022/02/05 13:05:42;;;;;;;32.83;16.20;;;24.40;71.50;;;;;;1890268;73;21084;-86
2022/02/05 13:08:13;;;;;;;32.08;16.40;;;24.40;71.60;;;;;;1892291;72;21448;-86
2022/02/05 13:10:46;;;;;;;36.40;15.70;;;24.40;71.60;;;;;;1884741;75;21628;-86
2022/02/05 13:13:21;;;;;;;25.70;14.38;;;24.40;71.60;;;;;;1885563;75;21567;-86
2022/02/05 13:15:53;;;;;;;26.17;13.48;;;24.40;71.60;;;;;;1887073;75;21380;-86
2022/02/05 13:18:40;;;;;;;26.87;12.70;;;24.40;71.50;;;;;;1880500;74;21179;-86
2022/02/05 13:26:22;;;;;;;20.82;12.25;;;24.40;71.70;;;;;;1885892;74;21195;-86
2022/02/05 13:34:32;;;;;;;22.10;12.60;;;24.30;71.90;;;;;;1876300;72;21164;-87
2022/02/05 13:36:40;;;;;;;21.02;12.18;;;24.30;71.70;;;;;;1884863;73;21095;-86
2022/02/05 13:42:16;;;;;;;20.65;12.47;;;24.20;71.80;;;;;;1890263;74;21075;-82
2022/02/05 13:44:24;;;;;;;19.73;11.78;;;24.30;71.80;;;;;;1884956;73;21442;-84
2022/02/05 13:47:01;;;;;;;19.65;11.35;;;24.30;72.00;;;;;;1890728;72;21148;-81
2022/02/05 13:49:31;;;;;;;21.77;12.43;;;24.30;72.20;;;;;;1881401;73;21210;-84
2022/02/05 13:52:05;;;;;;;18.52;11.68;;;24.30;72.20;;;;;;1887208;75;21170;-84
2022/02/05 13:54:37;;;;;;;24.07;11.93;;;24.20;72.20;;;;;;1892452;75;21163;-82
2022/02/05 13:57:14;;;;;;;24.05;12.10;;;24.20;72.40;;;;;;1878692;76;21774;-82
2022/02/05 13:59:47;;;;;;;18.80;11.73;;;24.20;72.50;;;;;;1883530;75;21169;-83
2022/02/05 14:02:21;;;;;;;16.97;12.53;;;24.20;72.50;;;;;;1887493;75;21120;-84
2022/02/05 14:04:54;;;;;;;20.55;13.08;;;24.20;72.10;;;;;;1887953;75;21646;-84
2022/02/05 14:07:27;;;;;;;20.55;12.95;;;24.10;72.00;;;;;;1881871;75;21172;-82
2022/02/05 14:10:00;;;;;;;24.23;13.88;;;24.10;72.30;;;;;;1877393;73;21081;-83
2022/02/05 14:12:35;;;;;;;22.40;13.53;;;24.10;72.10;;;;;;1881446;75;21052;-82
2022/02/05 14:15:08;;;;;;;19.85;13.30;;;24.00;72.30;;;;;;1889020;74;21064;-84
2022/02/05 14:17:39;;;;;;;21.45;14.03;;;24.10;72.50;;;;;;1884418;74;21618;-82
2022/02/05 14:20:13;;;;;;;23.22;13.65;;;24.00;72.30;;;;;;1887264;74;21587;-83
2022/02/05 14:22:49;;;;;;;22.25;13.95;;;24.00;72.40;;;;;;1883501;75;21155;-82
2022/02/05 14:25:27;;;;;;;19.67;13.53;;;24.00;72.40;;;;;;1877490;74;21252;-82
2022/02/05 14:27:53;;;;;;;23.55;13.88;;;24.00;72.60;;;;;;1886633;74;21150;-83
2022/02/05 14:30:27;;;;;;;21.97;13.53;;;24.00;72.70;;;;;;1887710;74;21526;-83
2022/02/05 14:32:59;;;;;;;22.48;14.55;;;23.90;72.80;;;;;;1884308;75;21591;-84
2022/02/05 14:40:44;;;;;;;21.30;12.90;;;23.80;73.40;;;;;;1878501;75;21120;-84
2022/02/05 14:43:05;;;;;;;23.92;13.75;;;23.90;73.60;;;;;;1887359;74;21185;-84
2022/02/05 14:45:36;;;;;;;21.60;13.05;;;23.80;73.50;;;;;;1887777;74;21252;-83
2022/02/05 14:48:07;;;;;;;22.67;13.00;;;23.80;73.40;;;;;;1881498;74;21156;-83
2022/02/05 14:50:40;;;;;;;21.52;13.83;;;23.80;73.70;;;;;;1879868;75;21597;-82
2022/02/05 14:53:11;;;;;;;18.05;12.78;;;23.80;73.90;;;;;;1884915;74;21192;-83
2022/02/05 14:55:42;;;;;;;19.80;12.25;;;23.80;74.10;;;;;;1889745;74;21136;-81
2022/02/05 14:58:13;;;;;;;18.27;12.40;;;23.80;74.10;;;;;;1880558;74;21155;-84
2022/02/05 15:00:45;;;;;;;22.37;11.88;;;23.80;74.10;;;;;;1876866;74;22012;-83
2022/02/05 15:03:20;;;;;;;21.75;11.65;;;23.80;74.10;;;;;;1882604;74;21631;-82
2022/02/05 15:05:49;;;;;;;16.30;10.75;;;23.70;74.00;;;;;;1889181;74;21177;-82
2022/02/05 15:08:20;;;;;;;19.12;11.63;;;23.70;74.70;;;;;;1882657;74;21559;-84
2022/02/05 15:10:50;;;;;;;19.57;10.80;;;23.70;74.20;;;;;;1882022;74;21618;-82
2022/02/05 15:13:21;;;;;;;16.48;10.85;;;23.70;74.40;;;;;;1888854;74;21220;-83
2022/02/05 15:16:00;;;;;;;18.45;10.85;;;23.80;74.30;;;;;;1873636;74;21178;-83
2022/02/05 15:18:27;;;;;;;17.45;10.90;;;23.80;74.50;;;;;;1889984;74;21135;-82
2022/02/05 15:21:02;;;;;;;16.20;10.90;;;23.80;74.40;;;;;;1885032;74;21185;-82
2022/02/05 15:23:30;;;;;;;16.73;9.65;;;23.70;74.40;;;;;;1878355;74;21241;-83
2022/02/05 15:26:04;;;;;;;18.98;9.93;;;23.70;74.70;;;;;;1884914;74;21147;-83
2022/02/05 15:28:35;;;;;;;18.60;10.23;;;23.70;74.80;;;;;;1889712;74;21132;-82
2022/02/05 15:31:15;;;;;;;15.25;9.90;;;23.70;74.70;;;;;;1884437;75;21180;-82
2022/02/05 15:33:44;;;;;;;16.47;9.87;;;23.70;74.60;;;;;;1885317;75;21250;-83
2022/02/05 15:36:24;;;;;;;23.02;10.63;;;23.70;74.70;;;;;;1888946;74;21057;-82
2022/02/05 15:43:57;;;;;;;15.08;9.40;;;23.70;74.80;;;;;;1880635;74;21778;-82
2022/02/05 15:46:29;;;;;;;16.87;9.40;;;23.70;74.90;;;;;;1883529;74;21080;-82
2022/02/05 15:49:00;;;;;;;15.95;9.75;;;23.70;75.00;;;;;;1885790;74;21127;-82
2022/02/05 15:51:32;;;;;;;17.00;10.13;;;23.70;74.80;;;;;;1879688;74;21214;-83
2022/02/05 15:54:05;;;;;;;15.45;9.73;;;23.70;74.90;;;;;;1890039;74;21130;-84
2022/02/05 15:59:12;;;;;;;18.30;11.18;;;23.50;75.10;;;;;;1881450;74;21544;-84
2022/02/05 16:01:40;;;;;;;16.57;10.60;;;23.50;75.40;;;;;;1889681;74;21078;-83
2022/02/05 16:04:13;;;;;;;17.25;11.48;;;23.50;75.60;;;;;;1832773;77;21191;-83
2022/02/05 16:06:44;;;;;;;17.37;10.45;;;23.50;75.80;;;;;;1868435;75;21123;-83